Terminal Aerodrome Forecast
Issued by NWS

Home | Current Version | Previous Version | Text Only | Print | Product List | Glossary On
Versions: 1 2 3 4 5 6 7 8 9 10 11 12 13 14 15 16 17 18 19 20 21 22 23 24 25 26 27 28
000
FTUS46 KEKA 110500
TAFCEC
TAF
KCEC 110539Z 1106/1206 00000KT P6SM OVC004
     FM110900 00000KT 2SM BR OVC002
     FM111500 VRB03KT 4SM BR OVC004
     FM112000 25007KT P6SM OVC008
     FM120200 VRB03KT P6SM BKN010=

USA.gov is the U.S. government's official web portal to all federal, state and local government web resources and services.